Terminal Aerodrome Forecast
Issued by NWS Twin Cities, MN

Home | Current Version | Previous Version | Graphics & Text | Print | Product List | Glossary On
Versions: 1 2 3 4 5 6 7 8 9 10 11 12 13 14 15 16 17 18 19 20 21 22 23 24 25 26 27 28 29 30
155
FTUS43 KMPX 090740 AAA
TAFMSP
TAF AMD
KMSP 090740Z 0908/1012 34015G25KT P6SM -SHSN SCT025 OVC035
     FM091200 34012KT P6SM BKN025
     FM091800 30008KT P6SM SCT070
     FM100000 25004KT P6SM SCT150
     FM100300 23004KT P6SM BKN110=

USA.gov is the U.S. government's official web portal to all federal, state and local government web resources and services.